<?xml version="1.0" encoding="UTF-8" standalone="no" ?><gpx xmlns="http://www.topografix.com/GPX/1/1" xmlns:gpxx="http://www.garmin.com/xmlschemas/GpxExtensions/v3" xmlns:wptx1="http://www.garmin.com/xmlschemas/WaypointExtension/v1" xmlns:gpxtpx="http://www.garmin.com/xmlschemas/TrackPointExtension/v1" creator="Dakota 20" version="1.1" xmlns:xsi="http://www.w3.org/2001/XMLSchema-instance" xsi:schemaLocation="http://www.topografix.com/GPX/1/1 http://www.topografix.com/GPX/1/1/gpx.xsd http://www.garmin.com/xmlschemas/GpxExtensions/v3 http://www8.garmin.com/xmlschemas/GpxExtensionsv3.xsd http://www.garmin.com/xmlschemas/WaypointExtension/v1 http://www8.garmin.com/xmlschemas/WaypointExtensionv1.xsd http://www.garmin.com/xmlschemas/TrackPointExtension/v1 http://www.garmin.com/xmlschemas/TrackPointExtensionv1.xsd"><metadata><link href="http://www.garmin.com"><text>Garmin International</text></link><time>2015-09-02T14:49:50Z</time></metadata><trk><name>Current Track: 02 SEP 2015 10:08</name><extensions><gpxx:TrackExtension><gpxx:DisplayColor>Cyan</gpxx:DisplayColor></gpxx:TrackExtension></extensions><trkseg><trkpt lat="52.1745068673" lon="-1.9322488736"><ele>72.24</ele><time>2015-09-02T09:08:48Z</time></trkpt><trkpt lat="52.1744956356" lon="-1.9322719239"><ele>71.76</ele><time>2015-09-02T09:08:56Z</time></trkpt><trkpt lat="52.1743657999" lon="-1.9324352872"><ele>71.76</ele><time>2015-09-02T09:09:13Z</time></trkpt><trkpt lat="52.1743131615" lon="-1.9325639494"><ele>72.24</ele><time>2015-09-02T09:09:32Z</time></trkpt><trkpt lat="52.1743139159" lon="-1.9325924478"><ele>72.24</ele><time>2015-09-02T09:09:36Z</time></trkpt><trkpt lat="52.1743047796" lon="-1.9328941125"><ele>72.24</ele><time>2015-09-02T09:09:56Z</time></trkpt><trkpt lat="52.1742520574" lon="-1.9330438133"><ele>72.72</ele><time>2015-09-02T09:10:15Z</time></trkpt><trkpt lat="52.1742737666" lon="-1.9332445599"><ele>72.72</ele><time>2015-09-02T09:10:32Z</time></trkpt><trkpt lat="52.1742432564" lon="-1.9335417822"><ele>72.72</ele><time>2015-09-02T09:10:50Z</time></trkpt><trkpt lat="52.1741882712" lon="-1.9338861108"><ele>73.20</ele><time>2015-09-02T09:11:08Z</time></trkpt><trkpt lat="52.1741489600" lon="-1.9341857638"><ele>72.24</ele><time>2015-09-02T09:11:25Z</time></trkpt><trkpt lat="52.1740819048" lon="-1.9344596006"><ele>73.20</ele><time>2015-09-02T09:11:40Z</time></trkpt><trkpt lat="52.1740469523" lon="-1.9347155001"><ele>72.72</ele><time>2015-09-02T09:11:56Z</time></trkpt><trkpt lat="52.1739883628" lon="-1.9350793585"><ele>71.27</ele><time>2015-09-02T09:12:17Z</time></trkpt><trkpt lat="52.1739511471" lon="-1.9353806879"><ele>72.24</ele><time>2015-09-02T09:12:34Z</time></trkpt><trkpt lat="52.1739411727" lon="-1.9357344881"><ele>72.24</ele><time>2015-09-02T09:12:55Z</time></trkpt><trkpt lat="52.1739068069" lon="-1.9360962510"><ele>72.72</ele><time>2015-09-02T09:13:16Z</time></trkpt><trkpt lat="52.1738826670" lon="-1.9363391586"><ele>73.20</ele><time>2015-09-02T09:13:32Z</time></trkpt><trkpt lat="52.1738630533" lon="-1.9365953095"><ele>73.68</ele><time>2015-09-02T09:13:46Z</time></trkpt><trkpt lat="52.1738261729" lon="-1.9368533045"><ele>73.68</ele><time>2015-09-02T09:14:01Z</time></trkpt><trkpt lat="52.1737984288" lon="-1.9371076953"><ele>74.16</ele><time>2015-09-02T09:14:17Z</time></trkpt><trkpt lat="52.1737666614" lon="-1.9373691268"><ele>74.16</ele><time>2015-09-02T09:14:35Z</time></trkpt><trkpt lat="52.1737332176" lon="-1.9377039000"><ele>75.12</ele><time>2015-09-02T09:14:54Z</time></trkpt><trkpt lat="52.1736943256" lon="-1.9380126894"><ele>74.64</ele><time>2015-09-02T09:15:16Z</time></trkpt><trkpt lat="52.1736711077" lon="-1.9383636396"><ele>75.12</ele><time>2015-09-02T09:15:39Z</time></trkpt><trkpt lat="52.1736281086" lon="-1.9386392366"><ele>75.12</ele><time>2015-09-02T09:15:59Z</time></trkpt><trkpt lat="52.1735965926" lon="-1.9389570784"><ele>76.08</ele><time>2015-09-02T09:16:18Z</time></trkpt><trkpt lat="52.1735773142" lon="-1.9391635247"><ele>76.08</ele><time>2015-09-02T09:16:32Z</time></trkpt><trkpt lat="52.1735610534" lon="-1.9393482618"><ele>76.56</ele><time>2015-09-02T09:16:44Z</time></trkpt><trkpt lat="52.1735672560" lon="-1.9396041613"><ele>77.04</ele><time>2015-09-02T09:17:02Z</time></trkpt><trkpt lat="52.1735747997" lon="-1.9398204982"><ele>77.52</ele><time>2015-09-02T09:17:17Z</time></trkpt><trkpt lat="52.1735820919" lon="-1.9400525093"><ele>78.00</ele><time>2015-09-02T09:17:32Z</time></trkpt><trkpt lat="52.1736343950" lon="-1.9402796589"><ele>78.97</ele><time>2015-09-02T09:17:48Z</time></trkpt><trkpt lat="52.1737303678" lon="-1.9404877815"><ele>79.45</ele><time>2015-09-02T09:18:07Z</time></trkpt><trkpt lat="52.1738106664" lon="-1.9406846724"><ele>80.41</ele><time>2015-09-02T09:18:22Z</time></trkpt><trkpt lat="52.1738751233" lon="-1.9409013446"><ele>80.41</ele><time>2015-09-02T09:18:38Z</time></trkpt><trkpt lat="52.1739579365" lon="-1.9411260635"><ele>81.37</ele><time>2015-09-02T09:18:55Z</time></trkpt><trkpt lat="52.1740505565" lon="-1.9414674584"><ele>82.81</ele><time>2015-09-02T09:19:18Z</time></trkpt><trkpt lat="52.1740882751" lon="-1.9416474178"><ele>82.81</ele><time>2015-09-02T09:19:32Z</time></trkpt><trkpt lat="52.1740759537" lon="-1.9419283792"><ele>83.77</ele><time>2015-09-02T09:19:49Z</time></trkpt><trkpt lat="52.1740529034" lon="-1.9421064947"><ele>83.77</ele><time>2015-09-02T09:20:03Z</time></trkpt><trkpt lat="52.1739819925" lon="-1.9422970153"><ele>85.21</ele><time>2015-09-02T09:20:19Z</time></trkpt><trkpt lat="52.1739356406" lon="-1.9424835965"><ele>86.18</ele><time>2015-09-02T09:20:34Z</time></trkpt><trkpt lat="52.1738773026" lon="-1.9426773861"><ele>86.66</ele><time>2015-09-02T09:20:47Z</time></trkpt><trkpt lat="52.1738042962" lon="-1.9429332856"><ele>88.10</ele><time>2015-09-02T09:21:07Z</time></trkpt><trkpt lat="52.1737196390" lon="-1.9431971479"><ele>89.06</ele><time>2015-09-02T09:21:25Z</time></trkpt><trkpt lat="52.1736545116" lon="-1.9434137363"><ele>90.50</ele><time>2015-09-02T09:21:41Z</time></trkpt><trkpt lat="52.1736269351" lon="-1.9435990602"><ele>90.98</ele><time>2015-09-02T09:21:57Z</time></trkpt><trkpt lat="52.1735890489" lon="-1.9438108709"><ele>92.42</ele><time>2015-09-02T09:22:13Z</time></trkpt><trkpt lat="52.1735467203" lon="-1.9439844601"><ele>92.90</ele><time>2015-09-02T09:22:26Z</time></trkpt><trkpt lat="52.1734992787" lon="-1.9441639166"><ele>93.87</ele><time>2015-09-02T09:22:42Z</time></trkpt><trkpt lat="52.1734617278" lon="-1.9443986099"><ele>93.87</ele><time>2015-09-02T09:23:01Z</time></trkpt><trkpt lat="52.1734364983" lon="-1.9445773959"><ele>94.83</ele><time>2015-09-02T09:23:16Z</time></trkpt><trkpt lat="52.1734211594" lon="-1.9446498994"><ele>94.83</ele><time>2015-09-02T09:23:34Z</time></trkpt><trkpt lat="52.1733942535" lon="-1.9447631389"><ele>95.31</ele><time>2015-09-02T09:23:51Z</time></trkpt><trkpt lat="52.1733121946" lon="-1.9450264145"><ele>95.31</ele><time>2015-09-02T09:24:07Z</time></trkpt><trkpt lat="52.1733110212" lon="-1.9451793004"><ele>95.79</ele><time>2015-09-02T09:24:27Z</time></trkpt><trkpt lat="52.1733178105" lon="-1.9451483712"><ele>96.27</ele><time>2015-09-02T09:24:50Z</time></trkpt><trkpt lat="52.1733093448" lon="-1.9449831638"><ele>95.31</ele><time>2015-09-02T09:25:09Z</time></trkpt><trkpt lat="52.1733577922" lon="-1.9446857739"><ele>94.83</ele><time>2015-09-02T09:25:29Z</time></trkpt><trkpt lat="52.1734346543" lon="-1.9443722907"><ele>94.35</ele><time>2015-09-02T09:25:48Z</time></trkpt><trkpt lat="52.1734717023" lon="-1.9441240188"><ele>93.39</ele><time>2015-09-02T09:26:06Z</time></trkpt><trkpt lat="52.1735074930" lon="-1.9441150501"><ele>92.90</ele><time>2015-09-02T09:26:26Z</time></trkpt><trkpt lat="52.1734699421" lon="-1.9441065844"><ele>93.39</ele><time>2015-09-02T09:26:49Z</time></trkpt><trkpt lat="52.1733137034" lon="-1.9442266971"><ele>93.39</ele><time>2015-09-02T09:27:12Z</time></trkpt><trkpt lat="52.1732634958" lon="-1.9442246854"><ele>93.87</ele><time>2015-09-02T09:27:30Z</time></trkpt><trkpt lat="52.1732096002" lon="-1.9442858733"><ele>93.39</ele><time>2015-09-02T09:27:52Z</time></trkpt><trkpt lat="52.1731458977" lon="-1.9442503341"><ele>93.39</ele><time>2015-09-02T09:28:10Z</time></trkpt><trkpt lat="52.1731482446" lon="-1.9442349952"><ele>93.87</ele><time>2015-09-02T09:28:34Z</time></trkpt><trkpt lat="52.1731315646" lon="-1.9442624878"><ele>93.39</ele><time>2015-09-02T09:28:58Z</time></trkpt><trkpt lat="52.1730622463" lon="-1.9443101808"><ele>93.39</ele><time>2015-09-02T09:29:18Z</time></trkpt><trkpt lat="52.1729920059" lon="-1.9443663396"><ele>93.39</ele><time>2015-09-02T09:29:38Z</time></trkpt><trkpt lat="52.1729168203" lon="-1.9443781581"><ele>93.39</ele><time>2015-09-02T09:29:56Z</time></trkpt><trkpt lat="52.1727882419" lon="-1.9444436207"><ele>93.87</ele><time>2015-09-02T09:30:16Z</time></trkpt><trkpt lat="52.1727252938" lon="-1.9444395974"><ele>93.87</ele><time>2015-09-02T09:30:34Z</time></trkpt><trkpt lat="52.1726309974" lon="-1.9444915652"><ele>94.35</ele><time>2015-09-02T09:30:49Z</time></trkpt><trkpt lat="52.1724994015" lon="-1.9445412699"><ele>93.87</ele><time>2015-09-02T09:31:03Z</time></trkpt><trkpt lat="52.1723687276" lon="-1.9445934054"><ele>93.87</ele><time>2015-09-02T09:31:17Z</time></trkpt><trkpt lat="52.1722414065" lon="-1.9446619693"><ele>93.87</ele><time>2015-09-02T09:31:31Z</time></trkpt><trkpt lat="52.1721155941" lon="-1.9447017834"><ele>93.39</ele><time>2015-09-02T09:31:46Z</time></trkpt><trkpt lat="52.1720036957" lon="-1.9447579421"><ele>93.87</ele><time>2015-09-02T09:32:01Z</time></trkpt><trkpt lat="52.1718703397" lon="-1.9448137656"><ele>93.39</ele><time>2015-09-02T09:32:15Z</time></trkpt><trkpt lat="52.1717564296" lon="-1.9448524062"><ele>93.39</ele><time>2015-09-02T09:32:31Z</time></trkpt><trkpt lat="52.1716204751" lon="-1.9449091516"><ele>93.39</ele><time>2015-09-02T09:32:45Z</time></trkpt><trkpt lat="52.1715273522" lon="-1.9449573476"><ele>93.39</ele><time>2015-09-02T09:32:56Z</time></trkpt><trkpt lat="52.1714001987" lon="-1.9450072199"><ele>92.90</ele><time>2015-09-02T09:33:10Z</time></trkpt><trkpt lat="52.1713075787" lon="-1.9450350478"><ele>92.90</ele><time>2015-09-02T09:33:27Z</time></trkpt><trkpt lat="52.1712187305" lon="-1.9450637978"><ele>92.90</ele><time>2015-09-02T09:33:43Z</time></trkpt><trkpt lat="52.1710265335" lon="-1.9452214614"><ele>93.39</ele><time>2015-09-02T09:33:57Z</time></trkpt><trkpt lat="52.1708869748" lon="-1.9453188591"><ele>92.90</ele><time>2015-09-02T09:34:11Z</time></trkpt><trkpt lat="52.1707266290" lon="-1.9453869201"><ele>92.90</ele><time>2015-09-02T09:34:27Z</time></trkpt><trkpt lat="52.1706318296" lon="-1.9454440009"><ele>92.90</ele><time>2015-09-02T09:34:44Z</time></trkpt><trkpt lat="52.1705464181" lon="-1.9455124810"><ele>92.90</ele><time>2015-09-02T09:35:02Z</time></trkpt><trkpt lat="52.1703577414" lon="-1.9455983955"><ele>92.90</ele><time>2015-09-02T09:35:17Z</time></trkpt><trkpt lat="52.1702465136" lon="-1.9457003195"><ele>92.42</ele><time>2015-09-02T09:35:32Z</time></trkpt><trkpt lat="52.1701501217" lon="-1.9457801990"><ele>92.42</ele><time>2015-09-02T09:35:49Z</time></trkpt><trkpt lat="52.1699794661" lon="-1.9459144771"><ele>92.42</ele><time>2015-09-02T09:36:02Z</time></trkpt><trkpt lat="52.1699145902" lon="-1.9459027424"><ele>91.94</ele><time>2015-09-02T09:36:20Z</time></trkpt><trkpt lat="52.1698898636" lon="-1.9458928518"><ele>91.94</ele><time>2015-09-02T09:36:37Z</time></trkpt><trkpt lat="52.1698347945" lon="-1.9459018204"><ele>92.42</ele><time>2015-09-02T09:36:59Z</time></trkpt><trkpt lat="52.1698265802" lon="-1.9459094480"><ele>91.94</ele><time>2015-09-02T09:37:15Z</time></trkpt><trkpt lat="52.1698321961" lon="-1.9459368568"><ele>91.94</ele><time>2015-09-02T09:37:32Z</time></trkpt><trkpt lat="52.1697739419" lon="-1.9460396189"><ele>92.42</ele><time>2015-09-02T09:37:47Z</time></trkpt><trkpt lat="52.1697322838" lon="-1.9461049978"><ele>91.94</ele><time>2015-09-02T09:38:03Z</time></trkpt><trkpt lat="52.1695609577" lon="-1.9461726397"><ele>92.42</ele><time>2015-09-02T09:38:19Z</time></trkpt><trkpt lat="52.1695436072" lon="-1.9461961091"><ele>91.94</ele><time>2015-09-02T09:38:21Z</time></trkpt><trkpt lat="52.1693986002" lon="-1.9464273658"><ele>91.94</ele><time>2015-09-02T09:38:37Z</time></trkpt><trkpt lat="52.1692594606" lon="-1.9464334846"><ele>91.94</ele><time>2015-09-02T09:38:53Z</time></trkpt><trkpt lat="52.1691589616" lon="-1.9465031382"><ele>91.46</ele><time>2015-09-02T09:39:09Z</time></trkpt><trkpt lat="52.1691472270" lon="-1.9465017132"><ele>93.39</ele><time>2015-09-02T09:39:17Z</time></trkpt><trkpt lat="52.1689754818" lon="-1.9465290383"><ele>91.94</ele><time>2015-09-02T09:39:32Z</time></trkpt><trkpt lat="52.1687951032" lon="-1.9466504920"><ele>91.46</ele><time>2015-09-02T09:39:47Z</time></trkpt><trkpt lat="52.1686741523" lon="-1.9468040485"><ele>91.46</ele><time>2015-09-02T09:40:03Z</time></trkpt><trkpt lat="52.1685434785" lon="-1.9468720257"><ele>91.46</ele><time>2015-09-02T09:40:19Z</time></trkpt><trkpt lat="52.1684174147" lon="-1.9468935672"><ele>92.42</ele><time>2015-09-02T09:40:32Z</time></trkpt><trkpt lat="52.1682769340" lon="-1.9469944853"><ele>91.94</ele><time>2015-09-02T09:40:45Z</time></trkpt><trkpt lat="52.1681767702" lon="-1.9470488839"><ele>91.94</ele><time>2015-09-02T09:40:57Z</time></trkpt><trkpt lat="52.1680595912" lon="-1.9472643826"><ele>91.94</ele><time>2015-09-02T09:41:13Z</time></trkpt><trkpt lat="52.1680192742" lon="-1.9472587667"><ele>92.90</ele><time>2015-09-02T09:41:26Z</time></trkpt><trkpt lat="52.1680455934" lon="-1.9472423382"><ele>92.90</ele><time>2015-09-02T09:41:52Z</time></trkpt><trkpt lat="52.1680484433" lon="-1.9472762011"><ele>92.90</ele><time>2015-09-02T09:42:15Z</time></trkpt><trkpt lat="52.1680711582" lon="-1.9475809671"><ele>92.90</ele><time>2015-09-02T09:42:35Z</time></trkpt><trkpt lat="52.1681015845" lon="-1.9479341805"><ele>92.90</ele><time>2015-09-02T09:42:55Z</time></trkpt><trkpt lat="52.1681042667" lon="-1.9480628427"><ele>92.90</ele><time>2015-09-02T09:43:09Z</time></trkpt><trkpt lat="52.1680786181" lon="-1.9481604081"><ele>92.90</ele><time>2015-09-02T09:43:16Z</time></trkpt><trkpt lat="52.1680367086" lon="-1.9482054189"><ele>92.90</ele><time>2015-09-02T09:43:20Z</time></trkpt><trkpt lat="52.1679849923" lon="-1.9482553750"><ele>92.90</ele><time>2015-09-02T09:43:27Z</time></trkpt><trkpt lat="52.1679357905" lon="-1.9483101927"><ele>92.90</ele><time>2015-09-02T09:43:32Z</time></trkpt><trkpt lat="52.1678336151" lon="-1.9484243542"><ele>91.94</ele><time>2015-09-02T09:43:47Z</time></trkpt><trkpt lat="52.1677272487" lon="-1.9485556986"><ele>92.42</ele><time>2015-09-02T09:44:02Z</time></trkpt><trkpt lat="52.1676139254" lon="-1.9487048127"><ele>92.42</ele><time>2015-09-02T09:44:16Z</time></trkpt><trkpt lat="52.1675741952" lon="-1.9487566128"><ele>92.42</ele><time>2015-09-02T09:44:21Z</time></trkpt><trkpt lat="52.1674581897" lon="-1.9488972612"><ele>92.90</ele><time>2015-09-02T09:44:38Z</time></trkpt><trkpt lat="52.1673434414" lon="-1.9490633067"><ele>93.39</ele><time>2015-09-02T09:44:55Z</time></trkpt><trkpt lat="52.1672338061" lon="-1.9492565095"><ele>93.39</ele><time>2015-09-02T09:45:11Z</time></trkpt><trkpt lat="52.1671985183" lon="-1.9493004307"><ele>93.39</ele><time>2015-09-02T09:45:16Z</time></trkpt><trkpt lat="52.1670549363" lon="-1.9494512212"><ele>93.39</ele><time>2015-09-02T09:45:35Z</time></trkpt><trkpt lat="52.1669339854" lon="-1.9495375548"><ele>92.90</ele><time>2015-09-02T09:45:50Z</time></trkpt><trkpt lat="52.1668173932" lon="-1.9497057796"><ele>93.39</ele><time>2015-09-02T09:46:06Z</time></trkpt><trkpt lat="52.1668118611" lon="-1.9497168437"><ele>93.39</ele><time>2015-09-02T09:46:07Z</time></trkpt><trkpt lat="52.1667645872" lon="-1.9497829769"><ele>93.39</ele><time>2015-09-02T09:46:14Z</time></trkpt><trkpt lat="52.1666349191" lon="-1.9499197695"><ele>93.39</ele><time>2015-09-02T09:46:31Z</time></trkpt><trkpt lat="52.1665597335" lon="-1.9499737490"><ele>93.39</ele><time>2015-09-02T09:46:39Z</time></trkpt><trkpt lat="52.1664432250" lon="-1.9500986394"><ele>93.39</ele><time>2015-09-02T09:46:55Z</time></trkpt><trkpt lat="52.1662993077" lon="-1.9502396230"><ele>93.87</ele><time>2015-09-02T09:47:09Z</time></trkpt><trkpt lat="52.1661662031" lon="-1.9503705483"><ele>93.87</ele><time>2015-09-02T09:47:23Z</time></trkpt><trkpt lat="52.1660999022" lon="-1.9504638389"><ele>93.39</ele><time>2015-09-02T09:47:38Z</time></trkpt><trkpt lat="52.1660829708" lon="-1.9504947681"><ele>94.35</ele><time>2015-09-02T09:47:55Z</time></trkpt><trkpt lat="52.1659517102" lon="-1.9506092649"><ele>94.35</ele><time>2015-09-02T09:48:10Z</time></trkpt><trkpt lat="52.1658494510" lon="-1.9507002924"><ele>94.35</ele><time>2015-09-02T09:48:25Z</time></trkpt><trkpt lat="52.1657305956" lon="-1.9508100115"><ele>94.35</ele><time>2015-09-02T09:48:40Z</time></trkpt><trkpt lat="52.1656140033" lon="-1.9509275258"><ele>94.35</ele><time>2015-09-02T09:48:55Z</time></trkpt><trkpt lat="52.1655981615" lon="-1.9509430323"><ele>94.35</ele><time>2015-09-02T09:49:12Z</time></trkpt><trkpt lat="52.1655617841" lon="-1.9509996939"><ele>94.83</ele><time>2015-09-02T09:49:33Z</time></trkpt><trkpt lat="52.1655477025" lon="-1.9510139432"><ele>94.83</ele><time>2015-09-02T09:49:50Z</time></trkpt><trkpt lat="52.1654960699" lon="-1.9510482252"><ele>94.35</ele><time>2015-09-02T09:50:08Z</time></trkpt><trkpt lat="52.1653824951" lon="-1.9511298649"><ele>94.83</ele><time>2015-09-02T09:50:22Z</time></trkpt><trkpt lat="52.1653718501" lon="-1.9511401746"><ele>94.83</ele><time>2015-09-02T09:50:43Z</time></trkpt><trkpt lat="52.1653580200" lon="-1.9511442818"><ele>95.31</ele><time>2015-09-02T09:51:08Z</time></trkpt><trkpt lat="52.1653066389" lon="-1.9511706848"><ele>95.31</ele><time>2015-09-02T09:51:23Z</time></trkpt><trkpt lat="52.1652845107" lon="-1.9511890411"><ele>94.83</ele><time>2015-09-02T09:51:26Z</time></trkpt><trkpt lat="52.1652382426" lon="-1.9512092415"><ele>95.31</ele><time>2015-09-02T09:51:40Z</time></trkpt><trkpt lat="52.1652340516" lon="-1.9511913881"><ele>96.75</ele><time>2015-09-02T09:51:59Z</time></trkpt><trkpt lat="52.1652236581" lon="-1.9511451200"><ele>95.79</ele><time>2015-09-02T09:52:03Z</time></trkpt><trkpt lat="52.1650602110" lon="-1.9512669928"><ele>94.83</ele><time>2015-09-02T09:52:21Z</time></trkpt><trkpt lat="52.1648654155" lon="-1.9514420070"><ele>96.75</ele><time>2015-09-02T09:52:40Z</time></trkpt><trkpt lat="52.1647364181" lon="-1.9515053742"><ele>95.31</ele><time>2015-09-02T09:52:51Z</time></trkpt><trkpt lat="52.1647018008" lon="-1.9515110739"><ele>96.75</ele><time>2015-09-02T09:52:53Z</time></trkpt><trkpt lat="52.1644765791" lon="-1.9516079687"><ele>97.23</ele><time>2015-09-02T09:53:12Z</time></trkpt><trkpt lat="52.1643209271" lon="-1.9517800491"><ele>96.75</ele><time>2015-09-02T09:53:32Z</time></trkpt><trkpt lat="52.1643070132" lon="-1.9517927896"><ele>97.71</ele><time>2015-09-02T09:53:34Z</time></trkpt><trkpt lat="52.1642958652" lon="-1.9518115651"><ele>94.35</ele><time>2015-09-02T09:53:36Z</time></trkpt><trkpt lat="52.1642590687" lon="-1.9518424943"><ele>96.27</ele><time>2015-09-02T09:53:40Z</time></trkpt><trkpt lat="52.1642333362" lon="-1.9518635329"><ele>98.67</ele><time>2015-09-02T09:53:43Z</time></trkpt><trkpt lat="52.1642117109" lon="-1.9518713281"><ele>96.75</ele><time>2015-09-02T09:53:45Z</time></trkpt><trkpt lat="52.1642010659" lon="-1.9518727530"><ele>96.75</ele><time>2015-09-02T09:53:46Z</time></trkpt><trkpt lat="52.1641665325" lon="-1.9518787041"><ele>99.15</ele><time>2015-09-02T09:53:51Z</time></trkpt><trkpt lat="52.1641454939" lon="-1.9518967252"><ele>97.71</ele><time>2015-09-02T09:53:53Z</time></trkpt><trkpt lat="52.1641086973" lon="-1.9519555662"><ele>100.60</ele><time>2015-09-02T09:53:59Z</time></trkpt><trkpt lat="52.1641012374" lon="-1.9519611821"><ele>97.71</ele><time>2015-09-02T09:54:00Z</time></trkpt><trkpt lat="52.1640557237" lon="-1.9519901834"><ele>98.67</ele><time>2015-09-02T09:54:06Z</time></trkpt><trkpt lat="52.1639256366" lon="-1.9520874135"><ele>98.67</ele><time>2015-09-02T09:54:20Z</time></trkpt><trkpt lat="52.1639013290" lon="-1.9521061052"><ele>97.71</ele><time>2015-09-02T09:54:24Z</time></trkpt><trkpt lat="52.1638455056" lon="-1.9521555584"><ele>99.15</ele><time>2015-09-02T09:54:30Z</time></trkpt><trkpt lat="52.1635961439" lon="-1.9523698837"><ele>97.71</ele><time>2015-09-02T09:54:54Z</time></trkpt><trkpt lat="52.1634402405" lon="-1.9525375217"><ele>97.23</ele><time>2015-09-02T09:55:14Z</time></trkpt><trkpt lat="52.1632391587" lon="-1.9527985342"><ele>96.27</ele><time>2015-09-02T09:55:34Z</time></trkpt><trkpt lat="52.1630434413" lon="-1.9529863726"><ele>95.79</ele><time>2015-09-02T09:55:55Z</time></trkpt><trkpt lat="52.1629179642" lon="-1.9531250093"><ele>94.83</ele><time>2015-09-02T09:56:09Z</time></trkpt><trkpt lat="52.1628804132" lon="-1.9532180484"><ele>93.87</ele><time>2015-09-02T09:56:17Z</time></trkpt><trkpt lat="52.1628782339" lon="-1.9532550126"><ele>93.87</ele><time>2015-09-02T09:56:35Z</time></trkpt><trkpt lat="52.1628762223" lon="-1.9532656576"><ele>94.83</ele><time>2015-09-02T09:57:06Z</time></trkpt><trkpt lat="52.1628769767" lon="-1.9532672502"><ele>94.83</ele><time>2015-09-02T09:57:28Z</time></trkpt><trkpt lat="52.1628847718" lon="-1.9532716926"><ele>94.35</ele><time>2015-09-02T09:57:51Z</time></trkpt><trkpt lat="52.1628918964" lon="-1.9532647356"><ele>94.35</ele><time>2015-09-02T09:58:16Z</time></trkpt><trkpt lat="52.1628840175" lon="-1.9532583654"><ele>94.35</ele><time>2015-09-02T09:58:36Z</time></trkpt><trkpt lat="52.1628755517" lon="-1.9532655738"><ele>94.35</ele><time>2015-09-02T09:58:54Z</time></trkpt><trkpt lat="52.1628796589" lon="-1.9532694295"><ele>93.87</ele><time>2015-09-02T09:59:20Z</time></trkpt><trkpt lat="52.1628812514" lon="-1.9532714412"><ele>93.87</ele><time>2015-09-02T09:59:50Z</time></trkpt><trkpt lat="52.1628860291" lon="-1.9532683399"><ele>94.35</ele><time>2015-09-02T10:00:19Z</time></trkpt><trkpt lat="52.1628937405" lon="-1.9532693457"><ele>94.35</ele><time>2015-09-02T10:00:47Z</time></trkpt><trkpt lat="52.1628927346" lon="-1.9532768894"><ele>94.35</ele><time>2015-09-02T10:01:09Z</time></trkpt><trkpt lat="52.1629015356" lon="-1.9532921445"><ele>94.35</ele><time>2015-09-02T10:01:35Z</time></trkpt><trkpt lat="52.1629082412" lon="-1.9532770570"><ele>94.83</ele><time>2015-09-02T10:02:03Z</time></trkpt><trkpt lat="52.1629046369" lon="-1.9532758836"><ele>93.87</ele><time>2015-09-02T10:02:31Z</time></trkpt><trkpt lat="52.1628983505" lon="-1.9532778114"><ele>96.75</ele><time>2015-09-02T10:02:57Z</time></trkpt><trkpt lat="52.1628943272" lon="-1.9532846007"><ele>94.35</ele><time>2015-09-02T10:03:12Z</time></trkpt><trkpt lat="52.1628918126" lon="-1.9532858580"><ele>93.87</ele><time>2015-09-02T10:03:33Z</time></trkpt><trkpt lat="52.1628919803" lon="-1.9532857742"><ele>94.83</ele><time>2015-09-02T10:03:35Z</time></trkpt><trkpt lat="52.1628938243" lon="-1.9532863609"><ele>94.83</ele><time>2015-09-02T10:04:02Z</time></trkpt><trkpt lat="52.1628924832" lon="-1.9532823376"><ele>87.62</ele><time>2015-09-02T10:04:11Z</time></trkpt><trkpt lat="52.1628923994" lon="-1.9532825891"><ele>95.31</ele><time>2015-09-02T10:04:12Z</time></trkpt><trkpt lat="52.1628957521" lon="-1.9532696810"><ele>95.31</ele><time>2015-09-02T10:04:31Z</time></trkpt><trkpt lat="52.1629014518" lon="-1.9532653224"><ele>94.35</ele><time>2015-09-02T10:04:50Z</time></trkpt><trkpt lat="52.1629018709" lon="-1.9532618020"><ele>94.35</ele><time>2015-09-02T10:05:14Z</time></trkpt><trkpt lat="52.1629027929" lon="-1.9532562699"><ele>94.83</ele><time>2015-09-02T10:05:41Z</time></trkpt><trkpt lat="52.1629044693" lon="-1.9532546774"><ele>94.35</ele><time>2015-09-02T10:06:12Z</time></trkpt><trkpt lat="52.1629239153" lon="-1.9531514961"><ele>94.83</ele><time>2015-09-02T10:06:38Z</time></trkpt><trkpt lat="52.1629430261" lon="-1.9531335589"><ele>93.39</ele><time>2015-09-02T10:06:53Z</time></trkpt><trkpt lat="52.1629729494" lon="-1.9531162083"><ele>95.31</ele><time>2015-09-02T10:06:56Z</time></trkpt><trkpt lat="52.1631044615" lon="-1.9529432058"><ele>95.79</ele><time>2015-09-02T10:07:14Z</time></trkpt><trkpt lat="52.1632222272" lon="-1.9528277870"><ele>97.23</ele><time>2015-09-02T10:07:30Z</time></trkpt><trkpt lat="52.1632912103" lon="-1.9527665991"><ele>96.75</ele><time>2015-09-02T10:07:38Z</time></trkpt><trkpt lat="52.1633913741" lon="-1.9525914174"><ele>97.23</ele><time>2015-09-02T10:07:51Z</time></trkpt><trkpt lat="52.1634583455" lon="-1.9524816982"><ele>97.71</ele><time>2015-09-02T10:08:04Z</time></trkpt><trkpt lat="52.1635684837" lon="-1.9524382800"><ele>97.71</ele><time>2015-09-02T10:08:14Z</time></trkpt><trkpt lat="52.1637055278" lon="-1.9523034152"><ele>98.19</ele><time>2015-09-02T10:08:28Z</time></trkpt><trkpt lat="52.1637212858" lon="-1.9522368629"><ele>98.19</ele><time>2015-09-02T10:08:32Z</time></trkpt><trkpt lat="52.1638148278" lon="-1.9521398842"><ele>98.19</ele><time>2015-09-02T10:08:47Z</time></trkpt><trkpt lat="52.1638657898" lon="-1.9521356095"><ele>98.19</ele><time>2015-09-02T10:09:02Z</time></trkpt><trkpt lat="52.1639274806" lon="-1.9520706497"><ele>98.19</ele><time>2015-09-02T10:09:15Z</time></trkpt><trkpt lat="52.1640825458" lon="-1.9519324321"><ele>98.19</ele><time>2015-09-02T10:09:35Z</time></trkpt><trkpt lat="52.1643026546" lon="-1.9517821446"><ele>97.71</ele><time>2015-09-02T10:09:56Z</time></trkpt><trkpt lat="52.1644909959" lon="-1.9516755268"><ele>97.23</ele><time>2015-09-02T10:10:14Z</time></trkpt><trkpt lat="52.1645637508" lon="-1.9515367225"><ele>97.23</ele><time>2015-09-02T10:10:30Z</time></trkpt><trkpt lat="52.1647656709" lon="-1.9514546636"><ele>96.75</ele><time>2015-09-02T10:10:53Z</time></trkpt><trkpt lat="52.1649043076" lon="-1.9513586070"><ele>94.83</ele><time>2015-09-02T10:11:10Z</time></trkpt><trkpt lat="52.1649103425" lon="-1.9513498899"><ele>97.71</ele><time>2015-09-02T10:11:11Z</time></trkpt><trkpt lat="52.1650077403" lon="-1.9513026159"><ele>95.79</ele><time>2015-09-02T10:11:17Z</time></trkpt><trkpt lat="52.1651089936" lon="-1.9512028713"><ele>94.83</ele><time>2015-09-02T10:11:32Z</time></trkpt><trkpt lat="52.1652511507" lon="-1.9511143584"><ele>94.83</ele><time>2015-09-02T10:11:49Z</time></trkpt><trkpt lat="52.1654337924" lon="-1.9509550184"><ele>94.83</ele><time>2015-09-02T10:12:10Z</time></trkpt><trkpt lat="52.1656642109" lon="-1.9508052338"><ele>94.35</ele><time>2015-09-02T10:12:30Z</time></trkpt><trkpt lat="52.1658727527" lon="-1.9506241847"><ele>93.87</ele><time>2015-09-02T10:12:51Z</time></trkpt><trkpt lat="52.1658977307" lon="-1.9505852088"><ele>93.87</ele><time>2015-09-02T10:12:55Z</time></trkpt><trkpt lat="52.1660636086" lon="-1.9504380226"><ele>94.35</ele><time>2015-09-02T10:13:12Z</time></trkpt><trkpt lat="52.1660734992" lon="-1.9504287187"><ele>94.83</ele><time>2015-09-02T10:13:13Z</time></trkpt><trkpt lat="52.1662212722" lon="-1.9502806943"><ele>92.90</ele><time>2015-09-02T10:13:29Z</time></trkpt><trkpt lat="52.1663708054" lon="-1.9501375314"><ele>93.39</ele><time>2015-09-02T10:13:48Z</time></trkpt><trkpt lat="52.1665141359" lon="-1.9500229508"><ele>93.39</ele><time>2015-09-02T10:14:04Z</time></trkpt><trkpt lat="52.1666109469" lon="-1.9498320110"><ele>92.42</ele><time>2015-09-02T10:14:25Z</time></trkpt><trkpt lat="52.1666690335" lon="-1.9497360382"><ele>91.94</ele><time>2015-09-02T10:14:41Z</time></trkpt><trkpt lat="52.1667113621" lon="-1.9497248065"><ele>92.42</ele><time>2015-09-02T10:15:03Z</time></trkpt><trkpt lat="52.1667219233" lon="-1.9497342780"><ele>91.94</ele><time>2015-09-02T10:15:22Z</time></trkpt><trkpt lat="52.1667963546" lon="-1.9496339466"><ele>91.94</ele><time>2015-09-02T10:15:42Z</time></trkpt><trkpt lat="52.1668794192" lon="-1.9495009258"><ele>91.46</ele><time>2015-09-02T10:16:03Z</time></trkpt><trkpt lat="52.1669695247" lon="-1.9492905401"><ele>90.98</ele><time>2015-09-02T10:16:23Z</time></trkpt><trkpt lat="52.1671109274" lon="-1.9490194693"><ele>90.50</ele><time>2015-09-02T10:16:46Z</time></trkpt><trkpt lat="52.1672639810" lon="-1.9488178845"><ele>89.54</ele><time>2015-09-02T10:17:08Z</time></trkpt><trkpt lat="52.1675728541" lon="-1.9486607239"><ele>89.54</ele><time>2015-09-02T10:17:22Z</time></trkpt><trkpt lat="52.1676731016" lon="-1.9484933373"><ele>89.54</ele><time>2015-09-02T10:17:42Z</time></trkpt><trkpt lat="52.1678778715" lon="-1.9481910020"><ele>90.02</ele><time>2015-09-02T10:18:06Z</time></trkpt><trkpt lat="52.1680913586" lon="-1.9480357692"><ele>88.58</ele><time>2015-09-02T10:18:26Z</time></trkpt><trkpt lat="52.1682278998" lon="-1.9482713845"><ele>89.06</ele><time>2015-09-02T10:18:44Z</time></trkpt><trkpt lat="52.1683205198" lon="-1.9484956004"><ele>87.62</ele><time>2015-09-02T10:19:08Z</time></trkpt><trkpt lat="52.1683506109" lon="-1.9485518429"><ele>86.66</ele><time>2015-09-02T10:19:14Z</time></trkpt><trkpt lat="52.1684031654" lon="-1.9488230813"><ele>85.69</ele><time>2015-09-02T10:19:34Z</time></trkpt><trkpt lat="52.1684757527" lon="-1.9490062259"><ele>81.85</ele><time>2015-09-02T10:19:51Z</time></trkpt><trkpt lat="52.1684829611" lon="-1.9490159489"><ele>84.73</ele><time>2015-09-02T10:19:52Z</time></trkpt><trkpt lat="52.1685086098" lon="-1.9491554238"><ele>84.73</ele><time>2015-09-02T10:20:11Z</time></trkpt><trkpt lat="52.1685490105" lon="-1.9492333755"><ele>83.77</ele><time>2015-09-02T10:20:32Z</time></trkpt><trkpt lat="52.1685940214" lon="-1.9493550807"><ele>82.33</ele><time>2015-09-02T10:20:52Z</time></trkpt><trkpt lat="52.1686135512" lon="-1.9494165201"><ele>81.85</ele><time>2015-09-02T10:21:10Z</time></trkpt><trkpt lat="52.1686107852" lon="-1.9493824057"><ele>80.89</ele><time>2015-09-02T10:21:12Z</time></trkpt><trkpt lat="52.1685993858" lon="-1.9493301027"><ele>85.69</ele><time>2015-09-02T10:21:15Z</time></trkpt><trkpt lat="52.1685717255" lon="-1.9492757879"><ele>82.81</ele><time>2015-09-02T10:21:19Z</time></trkpt><trkpt lat="52.1685231943" lon="-1.9492441881"><ele>83.29</ele><time>2015-09-02T10:21:37Z</time></trkpt><trkpt lat="52.1685609128" lon="-1.9493062142"><ele>83.29</ele><time>2015-09-02T10:22:00Z</time></trkpt><trkpt lat="52.1685900819" lon="-1.9494082220"><ele>82.33</ele><time>2015-09-02T10:22:22Z</time></trkpt><trkpt lat="52.1685858909" lon="-1.9493957330"><ele>82.81</ele><time>2015-09-02T10:22:40Z</time></trkpt><trkpt lat="52.1685721446" lon="-1.9493712578"><ele>81.85</ele><time>2015-09-02T10:23:00Z</time></trkpt><trkpt lat="52.1686247829" lon="-1.9494660571"><ele>81.37</ele><time>2015-09-02T10:23:19Z</time></trkpt><trkpt lat="52.1686166525" lon="-1.9494232256"><ele>81.37</ele><time>2015-09-02T10:23:39Z</time></trkpt><trkpt lat="52.1686324105" lon="-1.9494513050"><ele>86.66</ele><time>2015-09-02T10:23:58Z</time></trkpt><trkpt lat="52.1686328296" lon="-1.9494517241"><ele>81.37</ele><time>2015-09-02T10:23:59Z</time></trkpt><trkpt lat="52.1686376911" lon="-1.9495603535"><ele>81.37</ele><time>2015-09-02T10:24:20Z</time></trkpt><trkpt lat="52.1686832886" lon="-1.9496320188"><ele>80.89</ele><time>2015-09-02T10:24:40Z</time></trkpt><trkpt lat="52.1687190793" lon="-1.9496471900"><ele>80.89</ele><time>2015-09-02T10:25:01Z</time></trkpt><trkpt lat="52.1687047463" lon="-1.9496404845"><ele>80.41</ele><time>2015-09-02T10:25:23Z</time></trkpt><trkpt lat="52.1687177382" lon="-1.9496595953"><ele>79.45</ele><time>2015-09-02T10:25:43Z</time></trkpt><trkpt lat="52.1687478293" lon="-1.9497140776"><ele>78.00</ele><time>2015-09-02T10:26:03Z</time></trkpt><trkpt lat="52.1687674429" lon="-1.9499060232"><ele>77.52</ele><time>2015-09-02T10:26:24Z</time></trkpt><trkpt lat="52.1687599830" lon="-1.9499047659"><ele>77.52</ele><time>2015-09-02T10:26:45Z</time></trkpt><trkpt lat="52.1688371804" lon="-1.9500585739"><ele>76.08</ele><time>2015-09-02T10:27:04Z</time></trkpt><trkpt lat="52.1688435506" lon="-1.9500812050"><ele>76.56</ele><time>2015-09-02T10:27:27Z</time></trkpt><trkpt lat="52.1689246036" lon="-1.9503268786"><ele>74.64</ele><time>2015-09-02T10:27:46Z</time></trkpt><trkpt lat="52.1689929999" lon="-1.9505512621"><ele>74.16</ele><time>2015-09-02T10:28:08Z</time></trkpt><trkpt lat="52.1690336522" lon="-1.9506301358"><ele>75.12</ele><time>2015-09-02T10:28:30Z</time></trkpt><trkpt lat="52.1690315567" lon="-1.9506821036"><ele>75.60</ele><time>2015-09-02T10:28:51Z</time></trkpt><trkpt lat="52.1691236738" lon="-1.9509421941"><ele>76.56</ele><time>2015-09-02T10:29:13Z</time></trkpt><trkpt lat="52.1691656671" lon="-1.9511224050"><ele>73.20</ele><time>2015-09-02T10:29:29Z</time></trkpt><trkpt lat="52.1691831015" lon="-1.9511726964"><ele>76.08</ele><time>2015-09-02T10:29:43Z</time></trkpt><trkpt lat="52.1692215744" lon="-1.9513293542"><ele>76.08</ele><time>2015-09-02T10:30:01Z</time></trkpt><trkpt lat="52.1692589577" lon="-1.9514175318"><ele>77.04</ele><time>2015-09-02T10:30:21Z</time></trkpt><trkpt lat="52.1692574490" lon="-1.9514381513"><ele>75.12</ele><time>2015-09-02T10:30:40Z</time></trkpt><trkpt lat="52.1692554373" lon="-1.9514379837"><ele>78.00</ele><time>2015-09-02T10:30:46Z</time></trkpt><trkpt lat="52.1692551859" lon="-1.9514381513"><ele>74.64</ele><time>2015-09-02T10:30:48Z</time></trkpt><trkpt lat="52.1692486480" lon="-1.9514455274"><ele>78.00</ele><time>2015-09-02T10:30:57Z</time></trkpt><trkpt lat="52.1692486480" lon="-1.9514453597"><ele>76.08</ele><time>2015-09-02T10:30:58Z</time></trkpt><trkpt lat="52.1692514140" lon="-1.9514935557"><ele>76.56</ele><time>2015-09-02T10:31:23Z</time></trkpt><trkpt lat="52.1692516655" lon="-1.9515102357"><ele>76.08</ele><time>2015-09-02T10:31:24Z</time></trkpt><trkpt lat="52.1692124382" lon="-1.9518472720"><ele>76.08</ele><time>2015-09-02T10:31:42Z</time></trkpt><trkpt lat="52.1692003682" lon="-1.9521206897"><ele>75.60</ele><time>2015-09-02T10:32:01Z</time></trkpt><trkpt lat="52.1692077443" lon="-1.9523952808"><ele>75.60</ele><time>2015-09-02T10:32:21Z</time></trkpt><trkpt lat="52.1691858675" lon="-1.9527108595"><ele>75.60</ele><time>2015-09-02T10:32:38Z</time></trkpt><trkpt lat="52.1691587102" lon="-1.9528685231"><ele>76.08</ele><time>2015-09-02T10:32:56Z</time></trkpt><trkpt lat="52.1691376716" lon="-1.9531531725"><ele>74.64</ele><time>2015-09-02T10:33:16Z</time></trkpt><trkpt lat="52.1691237576" lon="-1.9532495644"><ele>76.56</ele><time>2015-09-02T10:33:22Z</time></trkpt><trkpt lat="52.1691149566" lon="-1.9533410948"><ele>74.16</ele><time>2015-09-02T10:33:27Z</time></trkpt><trkpt lat="52.1691225842" lon="-1.9535560906"><ele>73.20</ele><time>2015-09-02T10:33:45Z</time></trkpt><trkpt lat="52.1690945048" lon="-1.9540157542"><ele>73.20</ele><time>2015-09-02T10:34:03Z</time></trkpt><trkpt lat="52.1690887213" lon="-1.9543531258"><ele>72.24</ele><time>2015-09-02T10:34:21Z</time></trkpt><trkpt lat="52.1690515056" lon="-1.9547469076"><ele>71.76</ele><time>2015-09-02T10:34:39Z</time></trkpt><trkpt lat="52.1690312214" lon="-1.9550458062"><ele>71.27</ele><time>2015-09-02T10:34:58Z</time></trkpt><trkpt lat="52.1690176427" lon="-1.9553915597"><ele>70.31</ele><time>2015-09-02T10:35:20Z</time></trkpt><trkpt lat="52.1689808462" lon="-1.9557078928"><ele>69.35</ele><time>2015-09-02T10:35:39Z</time></trkpt><trkpt lat="52.1689604782" lon="-1.9561304245"><ele>68.87</ele><time>2015-09-02T10:36:00Z</time></trkpt><trkpt lat="52.1689627413" lon="-1.9563522097"><ele>68.39</ele><time>2015-09-02T10:36:11Z</time></trkpt><trkpt lat="52.1689609811" lon="-1.9566504378"><ele>67.91</ele><time>2015-09-02T10:36:30Z</time></trkpt><trkpt lat="52.1689238492" lon="-1.9568931777"><ele>66.47</ele><time>2015-09-02T10:36:49Z</time></trkpt><trkpt lat="52.1689059120" lon="-1.9572309684"><ele>65.99</ele><time>2015-09-02T10:37:09Z</time></trkpt><trkpt lat="52.1688820235" lon="-1.9576524105"><ele>65.51</ele><time>2015-09-02T10:37:31Z</time></trkpt><trkpt lat="52.1688805986" lon="-1.9579161890"><ele>65.03</ele><time>2015-09-02T10:37:54Z</time></trkpt><trkpt lat="52.1688909084" lon="-1.9582681451"><ele>63.58</ele><time>2015-09-02T10:38:15Z</time></trkpt><trkpt lat="52.1688493341" lon="-1.9585829694"><ele>63.10</ele><time>2015-09-02T10:38:34Z</time></trkpt><trkpt lat="52.1688427124" lon="-1.9588701334"><ele>61.18</ele><time>2015-09-02T10:38:46Z</time></trkpt><trkpt lat="52.1687971149" lon="-1.9591535255"><ele>62.14</ele><time>2015-09-02T10:38:58Z</time></trkpt><trkpt lat="52.1687748190" lon="-1.9593849499"><ele>62.14</ele><time>2015-09-02T10:39:14Z</time></trkpt><trkpt lat="52.1687433030" lon="-1.9596571941"><ele>62.14</ele><time>2015-09-02T10:39:32Z</time></trkpt><trkpt lat="52.1687499247" lon="-1.9598127622"><ele>61.66</ele><time>2015-09-02T10:39:51Z</time></trkpt><trkpt lat="52.1687003877" lon="-1.9601137564"><ele>61.18</ele><time>2015-09-02T10:40:13Z</time></trkpt><trkpt lat="52.1687191632" lon="-1.9601464458"><ele>61.66</ele><time>2015-09-02T10:40:22Z</time></trkpt><trkpt lat="52.1687443089" lon="-1.9601674005"><ele>60.70</ele><time>2015-09-02T10:40:34Z</time></trkpt><trkpt lat="52.1687883977" lon="-1.9602176081"><ele>61.18</ele><time>2015-09-02T10:40:53Z</time></trkpt><trkpt lat="52.1688080952" lon="-1.9603999984"><ele>61.18</ele><time>2015-09-02T10:41:13Z</time></trkpt><trkpt lat="52.1688626613" lon="-1.9604077935"><ele>61.66</ele><time>2015-09-02T10:41:29Z</time></trkpt><trkpt lat="52.1689228434" lon="-1.9604221266"><ele>62.62</ele><time>2015-09-02T10:41:34Z</time></trkpt><trkpt lat="52.1689826902" lon="-1.9604411535"><ele>62.62</ele><time>2015-09-02T10:41:38Z</time></trkpt><trkpt lat="52.1691735461" lon="-1.9604307599"><ele>62.62</ele><time>2015-09-02T10:41:56Z</time></trkpt><trkpt lat="52.1693482250" lon="-1.9604892656"><ele>64.07</ele><time>2015-09-02T10:42:11Z</time></trkpt><trkpt lat="52.1694550943" lon="-1.9605376292"><ele>65.99</ele><time>2015-09-02T10:42:21Z</time></trkpt><trkpt lat="52.1696204692" lon="-1.9607084524"><ele>65.99</ele><time>2015-09-02T10:42:38Z</time></trkpt><trkpt lat="52.1697049588" lon="-1.9608343486"><ele>66.95</ele><time>2015-09-02T10:42:47Z</time></trkpt><trkpt lat="52.1697387379" lon="-1.9609011523"><ele>66.95</ele><time>2015-09-02T10:43:03Z</time></trkpt><trkpt lat="52.1697532386" lon="-1.9609228615"><ele>66.47</ele><time>2015-09-02T10:43:22Z</time></trkpt><trkpt lat="52.1698637120" lon="-1.9610459078"><ele>67.91</ele><time>2015-09-02T10:43:40Z</time></trkpt><trkpt lat="52.1699354611" lon="-1.9611455686"><ele>68.87</ele><time>2015-09-02T10:43:54Z</time></trkpt><trkpt lat="52.1699559130" lon="-1.9611605722"><ele>69.83</ele><time>2015-09-02T10:43:56Z</time></trkpt><trkpt lat="52.1701301727" lon="-1.9613054954"><ele>71.27</ele><time>2015-09-02T10:44:15Z</time></trkpt><trkpt lat="52.1703172568" lon="-1.9614619855"><ele>71.27</ele><time>2015-09-02T10:44:32Z</time></trkpt><trkpt lat="52.1704423148" lon="-1.9615721237"><ele>74.64</ele><time>2015-09-02T10:44:45Z</time></trkpt><trkpt lat="52.1705944464" lon="-1.9617794920"><ele>73.68</ele><time>2015-09-02T10:45:02Z</time></trkpt><trkpt lat="52.1705967933" lon="-1.9617828447"><ele>65.51</ele><time>2015-09-02T10:45:03Z</time></trkpt><trkpt lat="52.1705969609" lon="-1.9617837667"><ele>73.20</ele><time>2015-09-02T10:45:04Z</time></trkpt><trkpt lat="52.1705970448" lon="-1.9617841858"><ele>76.56</ele><time>2015-09-02T10:45:05Z</time></trkpt><trkpt lat="52.1706028283" lon="-1.9617900532"><ele>74.64</ele><time>2015-09-02T10:45:06Z</time></trkpt><trkpt lat="52.1707734838" lon="-1.9619532488"><ele>75.12</ele><time>2015-09-02T10:45:28Z</time></trkpt><trkpt lat="52.1708879806" lon="-1.9620627165"><ele>75.60</ele><time>2015-09-02T10:45:47Z</time></trkpt><trkpt lat="52.1709144674" lon="-1.9620951544"><ele>76.08</ele><time>2015-09-02T10:46:10Z</time></trkpt><trkpt lat="52.1709179040" lon="-1.9620743673"><ele>76.08</ele><time>2015-09-02T10:46:35Z</time></trkpt><trkpt lat="52.1709126234" lon="-1.9620901253"><ele>76.08</ele><time>2015-09-02T10:46:59Z</time></trkpt><trkpt lat="52.1709188260" lon="-1.9621260837"><ele>76.56</ele><time>2015-09-02T10:47:15Z</time></trkpt><trkpt lat="52.1709203348" lon="-1.9621196296"><ele>76.56</ele><time>2015-09-02T10:47:30Z</time></trkpt><trkpt lat="52.1709220111" lon="-1.9621169474"><ele>76.08</ele><time>2015-09-02T10:47:40Z</time></trkpt><trkpt lat="52.1709542815" lon="-1.9621897023"><ele>76.08</ele><time>2015-09-02T10:48:01Z</time></trkpt><trkpt lat="52.1709536109" lon="-1.9621755369"><ele>76.08</ele><time>2015-09-02T10:48:19Z</time></trkpt><trkpt lat="52.1709852945" lon="-1.9621024467"><ele>75.12</ele><time>2015-09-02T10:48:46Z</time></trkpt><trkpt lat="52.1709557902" lon="-1.9620115031"><ele>76.56</ele><time>2015-09-02T10:48:54Z</time></trkpt><trkpt lat="52.1709394455" lon="-1.9619686715"><ele>76.08</ele><time>2015-09-02T10:49:13Z</time></trkpt><trkpt lat="52.1709588077" lon="-1.9620881975"><ele>77.52</ele><time>2015-09-02T10:49:26Z</time></trkpt><trkpt lat="52.1709552035" lon="-1.9620975014"><ele>73.68</ele><time>2015-09-02T10:49:30Z</time></trkpt><trkpt lat="52.1709547844" lon="-1.9620979205"><ele>77.52</ele><time>2015-09-02T10:49:31Z</time></trkpt><trkpt lat="52.1709539462" lon="-1.9620993454"><ele>74.16</ele><time>2015-09-02T10:49:33Z</time></trkpt><trkpt lat="52.1709538624" lon="-1.9621000160"><ele>78.48</ele><time>2015-09-02T10:49:34Z</time></trkpt><trkpt lat="52.1709555387" lon="-1.9621048775"><ele>73.20</ele><time>2015-09-02T10:49:48Z</time></trkpt><trkpt lat="52.1709563769" lon="-1.9621052966"><ele>76.56</ele><time>2015-09-02T10:49:49Z</time></trkpt><trkpt lat="52.1709578857" lon="-1.9621041231"><ele>78.00</ele><time>2015-09-02T10:49:54Z</time></trkpt><trkpt lat="52.1709584724" lon="-1.9621036202"><ele>77.52</ele><time>2015-09-02T10:49:59Z</time></trkpt><trkpt lat="52.1709762421" lon="-1.9620878622"><ele>77.04</ele><time>2015-09-02T10:50:03Z</time></trkpt><trkpt lat="52.1711620688" lon="-1.9620312005"><ele>76.56</ele><time>2015-09-02T10:50:18Z</time></trkpt><trkpt lat="52.1711865440" lon="-1.9620343018"><ele>77.52</ele><time>2015-09-02T10:50:20Z</time></trkpt><trkpt lat="52.1712486539" lon="-1.9619280193"><ele>77.04</ele><time>2015-09-02T10:50:40Z</time></trkpt><trkpt lat="52.1713744663" lon="-1.9618340582"><ele>79.45</ele><time>2015-09-02T10:50:57Z</time></trkpt><trkpt lat="52.1714194771" lon="-1.9618416019"><ele>75.60</ele><time>2015-09-02T10:51:00Z</time></trkpt><trkpt lat="52.1714370791" lon="-1.9618489780"><ele>76.56</ele><time>2015-09-02T10:51:01Z</time></trkpt><trkpt lat="52.1715915576" lon="-1.9618894625"><ele>78.00</ele><time>2015-09-02T10:51:14Z</time></trkpt><trkpt lat="52.1717184596" lon="-1.9618743751"><ele>78.00</ele><time>2015-09-02T10:51:24Z</time></trkpt><trkpt lat="52.1719897818" lon="-1.9618240837"><ele>78.97</ele><time>2015-09-02T10:51:44Z</time></trkpt><trkpt lat="52.1721006744" lon="-1.9617569447"><ele>78.00</ele><time>2015-09-02T10:51:54Z</time></trkpt><trkpt lat="52.1721305978" lon="-1.9617351517"><ele>79.45</ele><time>2015-09-02T10:51:57Z</time></trkpt><trkpt lat="52.1721523069" lon="-1.9617220759"><ele>80.89</ele><time>2015-09-02T10:51:59Z</time></trkpt><trkpt lat="52.1723470185" lon="-1.9617759716"><ele>80.89</ele><time>2015-09-02T10:52:13Z</time></trkpt><trkpt lat="52.1723929513" lon="-1.9617918972"><ele>80.89</ele><time>2015-09-02T10:52:17Z</time></trkpt><trkpt lat="52.1726628486" lon="-1.9617860299"><ele>80.89</ele><time>2015-09-02T10:52:37Z</time></trkpt><trkpt lat="52.1726941969" lon="-1.9617597107"><ele>77.04</ele><time>2015-09-02T10:52:40Z</time></trkpt><trkpt lat="52.1727040876" lon="-1.9617442880"><ele>80.89</ele><time>2015-09-02T10:52:41Z</time></trkpt><trkpt lat="52.1727226954" lon="-1.9617338106"><ele>81.85</ele><time>2015-09-02T10:52:43Z</time></trkpt><trkpt lat="52.1729211789" lon="-1.9616625644"><ele>83.29</ele><time>2015-09-02T10:53:01Z</time></trkpt><trkpt lat="52.1730251983" lon="-1.9616025500"><ele>82.81</ele><time>2015-09-02T10:53:13Z</time></trkpt><trkpt lat="52.1730514336" lon="-1.9615969341"><ele>84.25</ele><time>2015-09-02T10:53:15Z</time></trkpt><trkpt lat="52.1731186565" lon="-1.9614826888"><ele>85.21</ele><time>2015-09-02T10:53:32Z</time></trkpt><trkpt lat="52.1733122785" lon="-1.9614000432"><ele>86.66</ele><time>2015-09-02T10:53:55Z</time></trkpt><trkpt lat="52.1734228358" lon="-1.9613239355"><ele>90.02</ele><time>2015-09-02T10:54:09Z</time></trkpt><trkpt lat="52.1734349057" lon="-1.9613107760"><ele>86.66</ele><time>2015-09-02T10:54:10Z</time></trkpt><trkpt lat="52.1735691000" lon="-1.9611775875"><ele>89.06</ele><time>2015-09-02T10:54:21Z</time></trkpt><trkpt lat="52.1737098321" lon="-1.9611004740"><ele>88.58</ele><time>2015-09-02T10:54:32Z</time></trkpt><trkpt lat="52.1738673281" lon="-1.9609694649"><ele>89.06</ele><time>2015-09-02T10:54:55Z</time></trkpt><trkpt lat="52.1738910489" lon="-1.9609021582"><ele>89.54</ele><time>2015-09-02T10:55:14Z</time></trkpt><trkpt lat="52.1740474552" lon="-1.9607833028"><ele>89.06</ele><time>2015-09-02T10:55:31Z</time></trkpt><trkpt lat="52.1741283406" lon="-1.9607691374"><ele>90.02</ele><time>2015-09-02T10:55:49Z</time></trkpt><trkpt lat="52.1742445976" lon="-1.9608656969"><ele>89.06</ele><time>2015-09-02T10:56:07Z</time></trkpt><trkpt lat="52.1744161751" lon="-1.9610230252"><ele>88.58</ele><time>2015-09-02T10:56:25Z</time></trkpt><trkpt lat="52.1744481102" lon="-1.9610594865"><ele>88.58</ele><time>2015-09-02T10:56:42Z</time></trkpt><trkpt lat="52.1747132298" lon="-1.9613810163"><ele>89.06</ele><time>2015-09-02T10:57:00Z</time></trkpt><trkpt lat="52.1747512836" lon="-1.9614181481"><ele>90.02</ele><time>2015-09-02T10:57:02Z</time></trkpt><trkpt lat="52.1748639364" lon="-1.9615396019"><ele>90.50</ele><time>2015-09-02T10:57:08Z</time></trkpt><trkpt lat="52.1751415450" lon="-1.9617427792"><ele>90.98</ele><time>2015-09-02T10:57:27Z</time></trkpt><trkpt lat="52.1751827840" lon="-1.9618768059"><ele>92.42</ele><time>2015-09-02T10:57:45Z</time></trkpt><trkpt lat="52.1754562855" lon="-1.9620923884"><ele>92.90</ele><time>2015-09-02T10:58:06Z</time></trkpt><trkpt lat="52.1755845286" lon="-1.9621937256"><ele>92.42</ele><time>2015-09-02T10:58:20Z</time></trkpt><trkpt lat="52.1757307090" lon="-1.9622903690"><ele>93.87</ele><time>2015-09-02T10:58:31Z</time></trkpt><trkpt lat="52.1758697648" lon="-1.9623607770"><ele>93.87</ele><time>2015-09-02T10:58:50Z</time></trkpt><trkpt lat="52.1758810803" lon="-1.9623644650"><ele>93.87</ele><time>2015-09-02T10:59:05Z</time></trkpt><trkpt lat="52.1759050526" lon="-1.9623720925"><ele>93.87</ele><time>2015-09-02T10:59:17Z</time></trkpt><trkpt lat="52.1759061422" lon="-1.9623795524"><ele>93.87</ele><time>2015-09-02T10:59:39Z</time></trkpt><trkpt lat="52.1759093273" lon="-1.9623823185"><ele>94.35</ele><time>2015-09-02T10:59:58Z</time></trkpt><trkpt lat="52.1759116743" lon="-1.9623858389"><ele>93.87</ele><time>2015-09-02T11:00:24Z</time></trkpt><trkpt lat="52.1759138536" lon="-1.9623914547"><ele>94.35</ele><time>2015-09-02T11:00:47Z</time></trkpt><trkpt lat="52.1759707667" lon="-1.9623612799"><ele>93.87</ele><time>2015-09-02T11:00:55Z</time></trkpt><trkpt lat="52.1759952419" lon="-1.9623759482"><ele>94.35</ele><time>2015-09-02T11:01:08Z</time></trkpt><trkpt lat="52.1759969182" lon="-1.9623769540"><ele>92.42</ele><time>2015-09-02T11:01:11Z</time></trkpt><trkpt lat="52.1761210542" lon="-1.9623305183"><ele>91.94</ele><time>2015-09-02T11:01:30Z</time></trkpt><trkpt lat="52.1761671547" lon="-1.9623150956"><ele>92.42</ele><time>2015-09-02T11:01:48Z</time></trkpt><trkpt lat="52.1762337908" lon="-1.9620294403"><ele>90.98</ele><time>2015-09-02T11:02:08Z</time></trkpt><trkpt lat="52.1762352996" lon="-1.9620121736"><ele>90.02</ele><time>2015-09-02T11:02:28Z</time></trkpt><trkpt lat="52.1763014328" lon="-1.9618037157"><ele>88.58</ele><time>2015-09-02T11:02:48Z</time></trkpt><trkpt lat="52.1763498802" lon="-1.9615564495"><ele>87.14</ele><time>2015-09-02T11:03:08Z</time></trkpt><trkpt lat="52.1763769537" lon="-1.9613505062"><ele>85.69</ele><time>2015-09-02T11:03:26Z</time></trkpt><trkpt lat="52.1764026862" lon="-1.9611060899"><ele>84.25</ele><time>2015-09-02T11:03:45Z</time></trkpt><trkpt lat="52.1764290892" lon="-1.9608893339"><ele>83.77</ele><time>2015-09-02T11:04:01Z</time></trkpt><trkpt lat="52.1764481161" lon="-1.9606382120"><ele>81.85</ele><time>2015-09-02T11:04:20Z</time></trkpt><trkpt lat="52.1764618624" lon="-1.9605159201"><ele>80.89</ele><time>2015-09-02T11:04:29Z</time></trkpt><trkpt lat="52.1765005030" lon="-1.9602433406"><ele>79.45</ele><time>2015-09-02T11:04:47Z</time></trkpt><trkpt lat="52.1765180212" lon="-1.9600005168"><ele>79.45</ele><time>2015-09-02T11:05:04Z</time></trkpt><trkpt lat="52.1764674783" lon="-1.9597716909"><ele>78.48</ele><time>2015-09-02T11:05:22Z</time></trkpt><trkpt lat="52.1764031053" lon="-1.9596163742"><ele>78.00</ele><time>2015-09-02T11:05:33Z</time></trkpt><trkpt lat="52.1763482876" lon="-1.9593925774"><ele>77.52</ele><time>2015-09-02T11:05:55Z</time></trkpt><trkpt lat="52.1763487905" lon="-1.9593877159"><ele>68.39</ele><time>2015-09-02T11:05:56Z</time></trkpt><trkpt lat="52.1763494611" lon="-1.9593843631"><ele>78.48</ele><time>2015-09-02T11:05:57Z</time></trkpt><trkpt lat="52.1763353795" lon="-1.9593577925"><ele>77.52</ele><time>2015-09-02T11:06:11Z</time></trkpt><trkpt lat="52.1764109842" lon="-1.9593626540"><ele>77.04</ele><time>2015-09-02T11:06:18Z</time></trkpt><trkpt lat="52.1766129043" lon="-1.9593792502"><ele>76.56</ele><time>2015-09-02T11:06:37Z</time></trkpt><trkpt lat="52.1766500361" lon="-1.9592281245"><ele>76.56</ele><time>2015-09-02T11:06:48Z</time></trkpt><trkpt lat="52.1766806301" lon="-1.9589220174"><ele>75.12</ele><time>2015-09-02T11:07:08Z</time></trkpt><trkpt lat="52.1767165884" lon="-1.9585936144"><ele>74.16</ele><time>2015-09-02T11:07:27Z</time></trkpt><trkpt lat="52.1767543070" lon="-1.9583244715"><ele>74.16</ele><time>2015-09-02T11:07:45Z</time></trkpt><trkpt lat="52.1767824702" lon="-1.9579948951"><ele>73.68</ele><time>2015-09-02T11:08:04Z</time></trkpt><trkpt lat="52.1767698135" lon="-1.9579518121"><ele>72.24</ele><time>2015-09-02T11:08:08Z</time></trkpt><trkpt lat="52.1767779440" lon="-1.9577806536"><ele>72.72</ele><time>2015-09-02T11:08:19Z</time></trkpt><trkpt lat="52.1768304147" lon="-1.9574996084"><ele>72.24</ele><time>2015-09-02T11:08:37Z</time></trkpt><trkpt lat="52.1769291535" lon="-1.9572520070"><ele>71.76</ele><time>2015-09-02T11:08:56Z</time></trkpt><trkpt lat="52.1770241205" lon="-1.9569581375"><ele>71.27</ele><time>2015-09-02T11:09:16Z</time></trkpt><trkpt lat="52.1771061793" lon="-1.9566873182"><ele>71.27</ele><time>2015-09-02T11:09:34Z</time></trkpt><trkpt lat="52.1772248670" lon="-1.9563921914"><ele>70.79</ele><time>2015-09-02T11:09:55Z</time></trkpt><trkpt lat="52.1772516053" lon="-1.9563234597"><ele>70.79</ele><time>2015-09-02T11:10:16Z</time></trkpt><trkpt lat="52.1772586461" lon="-1.9563053548"><ele>71.27</ele><time>2015-09-02T11:10:25Z</time></trkpt><trkpt lat="52.1772972029" lon="-1.9562389702"><ele>70.31</ele><time>2015-09-02T11:10:30Z</time></trkpt><trkpt lat="52.1774004679" lon="-1.9559259899"><ele>69.83</ele><time>2015-09-02T11:10:53Z</time></trkpt><trkpt lat="52.1775000449" lon="-1.9555887021"><ele>69.83</ele><time>2015-09-02T11:11:14Z</time></trkpt><trkpt lat="52.1775536891" lon="-1.9555027038"><ele>69.35</ele><time>2015-09-02T11:11:29Z</time></trkpt><trkpt lat="52.1775805112" lon="-1.9553846866"><ele>70.31</ele><time>2015-09-02T11:11:49Z</time></trkpt><trkpt lat="52.1776645817" lon="-1.9551140349"><ele>69.83</ele><time>2015-09-02T11:12:07Z</time></trkpt><trkpt lat="52.1777437069" lon="-1.9549370930"><ele>69.35</ele><time>2015-09-02T11:12:24Z</time></trkpt><trkpt lat="52.1777713671" lon="-1.9548207521"><ele>69.35</ele><time>2015-09-02T11:12:36Z</time></trkpt><trkpt lat="52.1778491512" lon="-1.9545684569"><ele>68.87</ele><time>2015-09-02T11:12:55Z</time></trkpt><trkpt lat="52.1779371612" lon="-1.9543222804"><ele>69.35</ele><time>2015-09-02T11:13:12Z</time></trkpt><trkpt lat="52.1780682541" lon="-1.9539854117"><ele>67.91</ele><time>2015-09-02T11:13:35Z</time></trkpt><trkpt lat="52.1781509835" lon="-1.9537204597"><ele>67.91</ele><time>2015-09-02T11:13:55Z</time></trkpt><trkpt lat="52.1782541648" lon="-1.9534679130"><ele>67.91</ele><time>2015-09-02T11:14:14Z</time></trkpt><trkpt lat="52.1783502214" lon="-1.9531996083"><ele>65.99</ele><time>2015-09-02T11:14:33Z</time></trkpt><trkpt lat="52.1784479544" lon="-1.9528902322"><ele>66.47</ele><time>2015-09-02T11:14:52Z</time></trkpt><trkpt lat="52.1784731839" lon="-1.9528219197"><ele>65.99</ele><time>2015-09-02T11:14:58Z</time></trkpt><trkpt lat="52.1784898639" lon="-1.9527626596"><ele>66.47</ele><time>2015-09-02T11:15:02Z</time></trkpt><trkpt lat="52.1785530634" lon="-1.9525828678"><ele>64.55</ele><time>2015-09-02T11:15:16Z</time></trkpt><trkpt lat="52.1785582602" lon="-1.9525650144"><ele>65.03</ele><time>2015-09-02T11:15:17Z</time></trkpt><trkpt lat="52.1786326915" lon="-1.9523185026"><ele>65.51</ele><time>2015-09-02T11:15:34Z</time></trkpt><trkpt lat="52.1786558256" lon="-1.9522990566"><ele>65.03</ele><time>2015-09-02T11:15:54Z</time></trkpt><trkpt lat="52.1786445938" lon="-1.9522413891"><ele>65.03</ele><time>2015-09-02T11:16:00Z</time></trkpt><trkpt lat="52.1785906982" lon="-1.9519055262"><ele>65.99</ele><time>2015-09-02T11:16:19Z</time></trkpt><trkpt lat="52.1785445139" lon="-1.9516341202"><ele>65.03</ele><time>2015-09-02T11:16:36Z</time></trkpt><trkpt lat="52.1785326116" lon="-1.9515337050"><ele>64.55</ele><time>2015-09-02T11:16:46Z</time></trkpt><trkpt lat="52.1785269119" lon="-1.9514980819"><ele>65.51</ele><time>2015-09-02T11:16:48Z</time></trkpt><trkpt lat="52.1784808952" lon="-1.9511545077"><ele>65.03</ele><time>2015-09-02T11:17:08Z</time></trkpt><trkpt lat="52.1784584317" lon="-1.9508073293"><ele>64.07</ele><time>2015-09-02T11:17:27Z</time></trkpt><trkpt lat="52.1784434281" lon="-1.9506391045"><ele>63.58</ele><time>2015-09-02T11:17:41Z</time></trkpt><trkpt lat="52.1784508880" lon="-1.9504685327"><ele>63.58</ele><time>2015-09-02T11:17:50Z</time></trkpt><trkpt lat="52.1784302685" lon="-1.9503026549"><ele>65.03</ele><time>2015-09-02T11:18:00Z</time></trkpt><trkpt lat="52.1784026921" lon="-1.9501992222"><ele>64.55</ele><time>2015-09-02T11:18:21Z</time></trkpt><trkpt lat="52.1784136724" lon="-1.9500547182"><ele>63.58</ele><time>2015-09-02T11:18:38Z</time></trkpt><trkpt lat="52.1784124151" lon="-1.9497785345"><ele>64.07</ele><time>2015-09-02T11:18:55Z</time></trkpt><trkpt lat="52.1784118284" lon="-1.9494875148"><ele>64.07</ele><time>2015-09-02T11:19:12Z</time></trkpt><trkpt lat="52.1784131695" lon="-1.9491430186"><ele>64.55</ele><time>2015-09-02T11:19:32Z</time></trkpt><trkpt lat="52.1784369741" lon="-1.9491090719"><ele>65.99</ele><time>2015-09-02T11:19:50Z</time></trkpt><trkpt lat="52.1784511395" lon="-1.9488967583"><ele>64.55</ele><time>2015-09-02T11:20:07Z</time></trkpt><trkpt lat="52.1784597728" lon="-1.9485366717"><ele>65.51</ele><time>2015-09-02T11:20:27Z</time></trkpt><trkpt lat="52.1784205455" lon="-1.9483749848"><ele>65.51</ele><time>2015-09-02T11:20:39Z</time></trkpt><trkpt lat="52.1784179471" lon="-1.9483558740"><ele>64.55</ele><time>2015-09-02T11:20:41Z</time></trkpt><trkpt lat="52.1783990879" lon="-1.9483165629"><ele>63.10</ele><time>2015-09-02T11:21:01Z</time></trkpt><trkpt lat="52.1784163546" lon="-1.9482757431"><ele>65.51</ele><time>2015-09-02T11:21:04Z</time></trkpt><trkpt lat="52.1784415841" lon="-1.9479537103"><ele>65.99</ele><time>2015-09-02T11:21:23Z</time></trkpt><trkpt lat="52.1784337889" lon="-1.9477175083"><ele>65.51</ele><time>2015-09-02T11:21:43Z</time></trkpt><trkpt lat="52.1784328669" lon="-1.9477070309"><ele>65.51</ele><time>2015-09-02T11:21:44Z</time></trkpt><trkpt lat="52.1784368064" lon="-1.9473850820"><ele>65.03</ele><time>2015-09-02T11:22:04Z</time></trkpt><trkpt lat="52.1784583479" lon="-1.9470293541"><ele>66.47</ele><time>2015-09-02T11:22:25Z</time></trkpt><trkpt lat="52.1785005927" lon="-1.9466679264"><ele>65.51</ele><time>2015-09-02T11:22:45Z</time></trkpt><trkpt lat="52.1785333659" lon="-1.9464576244"><ele>65.99</ele><time>2015-09-02T11:22:59Z</time></trkpt><trkpt lat="52.1785368863" lon="-1.9461400341"><ele>65.51</ele><time>2015-09-02T11:23:17Z</time></trkpt><trkpt lat="52.1785172727" lon="-1.9458001480"><ele>65.51</ele><time>2015-09-02T11:23:36Z</time></trkpt><trkpt lat="52.1784984134" lon="-1.9455249701"><ele>66.47</ele><time>2015-09-02T11:23:56Z</time></trkpt><trkpt lat="52.1784849185" lon="-1.9453175180"><ele>66.95</ele><time>2015-09-02T11:24:14Z</time></trkpt><trkpt lat="52.1784545761" lon="-1.9451016840"><ele>66.47</ele><time>2015-09-02T11:24:33Z</time></trkpt><trkpt lat="52.1784047876" lon="-1.9448041264"><ele>67.43</ele><time>2015-09-02T11:24:51Z</time></trkpt><trkpt lat="52.1784053743" lon="-1.9447938167"><ele>67.91</ele><time>2015-09-02T11:25:10Z</time></trkpt><trkpt lat="52.1783987526" lon="-1.9447713532"><ele>67.43</ele><time>2015-09-02T11:25:36Z</time></trkpt><trkpt lat="52.1783869341" lon="-1.9447535835"><ele>67.43</ele><time>2015-09-02T11:26:01Z</time></trkpt><trkpt lat="52.1783470362" lon="-1.9445809163"><ele>67.43</ele><time>2015-09-02T11:26:19Z</time></trkpt><trkpt lat="52.1783088986" lon="-1.9443126954"><ele>68.39</ele><time>2015-09-02T11:26:37Z</time></trkpt><trkpt lat="52.1782513149" lon="-1.9441033993"><ele>67.43</ele><time>2015-09-02T11:26:55Z</time></trkpt><trkpt lat="52.1782161947" lon="-1.9439267926"><ele>66.95</ele><time>2015-09-02T11:27:09Z</time></trkpt><trkpt lat="52.1781828348" lon="-1.9436224457"><ele>67.43</ele><time>2015-09-02T11:27:29Z</time></trkpt><trkpt lat="52.1781222336" lon="-1.9433319289"><ele>67.43</ele><time>2015-09-02T11:27:49Z</time></trkpt><trkpt lat="52.1781040449" lon="-1.9431403186"><ele>68.87</ele><time>2015-09-02T11:28:06Z</time></trkpt><trkpt lat="52.1780667454" lon="-1.9428502209"><ele>69.35</ele><time>2015-09-02T11:28:22Z</time></trkpt><trkpt lat="52.1780470479" lon="-1.9427049626"><ele>68.39</ele><time>2015-09-02T11:28:30Z</time></trkpt><trkpt lat="52.1779960021" lon="-1.9424244203"><ele>68.87</ele><time>2015-09-02T11:28:52Z</time></trkpt><trkpt lat="52.1779596247" lon="-1.9422986917"><ele>69.83</ele><time>2015-09-02T11:29:13Z</time></trkpt><trkpt lat="52.1778952517" lon="-1.9419697858"><ele>69.83</ele><time>2015-09-02T11:29:33Z</time></trkpt><trkpt lat="52.1778881270" lon="-1.9417933468"><ele>73.68</ele><time>2015-09-02T11:29:54Z</time></trkpt><trkpt lat="52.1778877918" lon="-1.9417903293"><ele>73.20</ele><time>2015-09-02T11:29:55Z</time></trkpt><trkpt lat="52.1778890491" lon="-1.9417298958"><ele>74.64</ele><time>2015-09-02T11:30:10Z</time></trkpt><trkpt lat="52.1778522525" lon="-1.9414558914"><ele>74.64</ele><time>2015-09-02T11:30:28Z</time></trkpt><trkpt lat="52.1778409369" lon="-1.9414112158"><ele>82.33</ele><time>2015-09-02T11:30:29Z</time></trkpt><trkpt lat="52.1778331418" lon="-1.9413931109"><ele>74.64</ele><time>2015-09-02T11:30:30Z</time></trkpt><trkpt lat="52.1777950041" lon="-1.9413085375"><ele>75.12</ele><time>2015-09-02T11:30:41Z</time></trkpt><trkpt lat="52.1777792461" lon="-1.9412428234"><ele>74.16</ele><time>2015-09-02T11:30:45Z</time></trkpt><trkpt lat="52.1777330618" lon="-1.9411082938"><ele>74.64</ele><time>2015-09-02T11:30:53Z</time></trkpt><trkpt lat="52.1776815131" lon="-1.9409109000"><ele>74.64</ele><time>2015-09-02T11:31:11Z</time></trkpt><trkpt lat="52.1776310541" lon="-1.9407892786"><ele>73.68</ele><time>2015-09-02T11:31:33Z</time></trkpt><trkpt lat="52.1775515936" lon="-1.9405524898"><ele>73.20</ele><time>2015-09-02T11:31:50Z</time></trkpt><trkpt lat="52.1774762403" lon="-1.9403060619"><ele>73.68</ele><time>2015-09-02T11:32:07Z</time></trkpt><trkpt lat="52.1774531901" lon="-1.9402048923"><ele>73.68</ele><time>2015-09-02T11:32:22Z</time></trkpt><trkpt lat="52.1773712151" lon="-1.9399004616"><ele>74.16</ele><time>2015-09-02T11:32:40Z</time></trkpt><trkpt lat="52.1773163974" lon="-1.9396580569"><ele>74.16</ele><time>2015-09-02T11:32:58Z</time></trkpt><trkpt lat="52.1772954427" lon="-1.9395581447"><ele>74.16</ele><time>2015-09-02T11:33:12Z</time></trkpt><trkpt lat="52.1772342548" lon="-1.9392875768"><ele>72.72</ele><time>2015-09-02T11:33:29Z</time></trkpt><trkpt lat="52.1771813650" lon="-1.9390094653"><ele>73.20</ele><time>2015-09-02T11:33:47Z</time></trkpt><trkpt lat="52.1771083586" lon="-1.9388073776"><ele>72.72</ele><time>2015-09-02T11:34:04Z</time></trkpt><trkpt lat="52.1770760044" lon="-1.9387446810"><ele>72.72</ele><time>2015-09-02T11:34:26Z</time></trkpt><trkpt lat="52.1770483442" lon="-1.9386824872"><ele>72.72</ele><time>2015-09-02T11:34:30Z</time></trkpt><trkpt lat="52.1769552212" lon="-1.9384819083"><ele>72.24</ele><time>2015-09-02T11:34:46Z</time></trkpt><trkpt lat="52.1768846456" lon="-1.9382865261"><ele>72.24</ele><time>2015-09-02T11:35:05Z</time></trkpt><trkpt lat="52.1768924408" lon="-1.9382164534"><ele>72.72</ele><time>2015-09-02T11:35:18Z</time></trkpt><trkpt lat="52.1768922731" lon="-1.9380924851"><ele>71.76</ele><time>2015-09-02T11:35:38Z</time></trkpt><trkpt lat="52.1768920217" lon="-1.9381003641"><ele>72.72</ele><time>2015-09-02T11:35:47Z</time></trkpt><trkpt lat="52.1768954583" lon="-1.9381178822"><ele>72.24</ele><time>2015-09-02T11:36:06Z</time></trkpt><trkpt lat="52.1768934466" lon="-1.9381195586"><ele>72.24</ele><time>2015-09-02T11:36:26Z</time></trkpt><trkpt lat="52.1769174188" lon="-1.9377120305"><ele>70.79</ele><time>2015-09-02T11:36:47Z</time></trkpt><trkpt lat="52.1768532973" lon="-1.9373259600"><ele>70.31</ele><time>2015-09-02T11:37:07Z</time></trkpt><trkpt lat="52.1767783631" lon="-1.9369386323"><ele>70.31</ele><time>2015-09-02T11:37:27Z</time></trkpt><trkpt lat="52.1767424885" lon="-1.9368139096"><ele>69.35</ele><time>2015-09-02T11:37:34Z</time></trkpt><trkpt lat="52.1766368765" lon="-1.9364373945"><ele>68.87</ele><time>2015-09-02T11:37:53Z</time></trkpt><trkpt lat="52.1765440889" lon="-1.9361624680"><ele>69.35</ele><time>2015-09-02T11:38:09Z</time></trkpt><trkpt lat="52.1764782071" lon="-1.9359874539"><ele>68.87</ele><time>2015-09-02T11:38:20Z</time></trkpt><trkpt lat="52.1764413267" lon="-1.9358198158"><ele>69.35</ele><time>2015-09-02T11:38:29Z</time></trkpt><trkpt lat="52.1764151752" lon="-1.9355563726"><ele>70.31</ele><time>2015-09-02T11:38:47Z</time></trkpt><trkpt lat="52.1764138341" lon="-1.9354487490"><ele>69.83</ele><time>2015-09-02T11:39:04Z</time></trkpt><trkpt lat="52.1764048655" lon="-1.9354150537"><ele>70.79</ele><time>2015-09-02T11:39:06Z</time></trkpt><trkpt lat="52.1763381455" lon="-1.9351623394"><ele>69.83</ele><time>2015-09-02T11:39:24Z</time></trkpt><trkpt lat="52.1762614511" lon="-1.9349380396"><ele>70.79</ele><time>2015-09-02T11:39:40Z</time></trkpt><trkpt lat="52.1762463637" lon="-1.9348890055"><ele>71.27</ele><time>2015-09-02T11:39:57Z</time></trkpt><trkpt lat="52.1762114950" lon="-1.9347903505"><ele>69.83</ele><time>2015-09-02T11:40:13Z</time></trkpt><trkpt lat="52.1761452779" lon="-1.9345565792"><ele>70.31</ele><time>2015-09-02T11:40:30Z</time></trkpt><trkpt lat="52.1761161927" lon="-1.9344249833"><ele>71.76</ele><time>2015-09-02T11:40:42Z</time></trkpt><trkpt lat="52.1760988422" lon="-1.9343133364"><ele>71.27</ele><time>2015-09-02T11:40:50Z</time></trkpt><trkpt lat="52.1760597825" lon="-1.9339787308"><ele>71.27</ele><time>2015-09-02T11:41:09Z</time></trkpt><trkpt lat="52.1760373190" lon="-1.9337293692"><ele>70.79</ele><time>2015-09-02T11:41:25Z</time></trkpt><trkpt lat="52.1760167833" lon="-1.9336252660"><ele>71.76</ele><time>2015-09-02T11:41:42Z</time></trkpt><trkpt lat="52.1760102455" lon="-1.9335701969"><ele>71.27</ele><time>2015-09-02T11:41:46Z</time></trkpt><trkpt lat="52.1759296954" lon="-1.9332741480"><ele>71.27</ele><time>2015-09-02T11:42:05Z</time></trkpt><trkpt lat="52.1759251691" lon="-1.9332548697"><ele>71.27</ele><time>2015-09-02T11:42:06Z</time></trkpt><trkpt lat="52.1758296154" lon="-1.9330045860"><ele>70.79</ele><time>2015-09-02T11:42:23Z</time></trkpt><trkpt lat="52.1757078264" lon="-1.9327840582"><ele>71.27</ele><time>2015-09-02T11:42:40Z</time></trkpt><trkpt lat="52.1755758114" lon="-1.9325911067"><ele>70.31</ele><time>2015-09-02T11:42:58Z</time></trkpt><trkpt lat="52.1754453890" lon="-1.9323440082"><ele>69.83</ele><time>2015-09-02T11:43:16Z</time></trkpt><trkpt lat="52.1753429621" lon="-1.9321960676"><ele>69.35</ele><time>2015-09-02T11:43:31Z</time></trkpt><trkpt lat="52.1753318980" lon="-1.9321689103"><ele>68.87</ele><time>2015-09-02T11:43:33Z</time></trkpt><trkpt lat="52.1751705464" lon="-1.9319442753"><ele>68.87</ele><time>2015-09-02T11:43:54Z</time></trkpt><trkpt lat="52.1750236955" lon="-1.9317215681"><ele>68.87</ele><time>2015-09-02T11:44:12Z</time></trkpt><trkpt lat="52.1749724820" lon="-1.9317331351"><ele>70.31</ele><time>2015-09-02T11:44:22Z</time></trkpt><trkpt lat="52.1748889145" lon="-1.9318204746"><ele>68.87</ele><time>2015-09-02T11:44:32Z</time></trkpt><trkpt lat="52.1747694723" lon="-1.9320003502"><ele>69.35</ele><time>2015-09-02T11:44:50Z</time></trkpt><trkpt lat="52.1746349428" lon="-1.9321097340"><ele>68.87</ele><time>2015-09-02T11:45:08Z</time></trkpt><trkpt lat="52.1745889261" lon="-1.9322086405"><ele>68.87</ele><time>2015-09-02T11:45:16Z</time></trkpt><trkpt lat="52.1745413169" lon="-1.9322656374"><ele>69.83</ele><time>2015-09-02T11:45:29Z</time></trkpt></trkseg></trk></gpx>